El Palomar, Argentina

10:40 PM ART on August 26, 2016 (GMT -0300)
Altos de Podesta | | Change Station

Elev 30 ft 34.58 °S, 58.62 °W | Updated 39 seconds ago

Clear
Clear
71.4 °F
Feels Like 76 °F
N
4.5
Wind Variable Wind from SE
Gusts 6.9 mph

Today
High -- | Low -- °F
--% Chance of Precip.
Yesterday
High -- | Low -- °F
Precip. -- in
Pressure 29.80 in
Visibility -9999.0 miles
Clouds
Heat Index 76 °F
Dew Point 57 °F
Humidity 60%
Rainfall 0.00 in
Snow Depth Not available.
7:20 AM 6:32 PM
Waning Crescent, 29% visible
METAR SADF 270100Z 14002KT CAVOK 21/15 Q1009
Pressure 29.80 in
Visibility -9999.0 miles
Clouds
Heat Index 76 °F
Dew Point 57 °F
Humidity 60%
Rainfall 0.00 in
Snow Depth Not available.
7:20 AM 6:32 PM
Waning Crescent, 29% visible
METAR SADF 270100Z 14002KT CAVOK 21/15 Q1009

10-Day Weather Forecast

No radar image for this location.
×

Almanac

Astronomy

Aug. 26, 2016 Rise Set
Actual Time
Civil Twilight
Nautical Twilight
Astronomical Twilight
Moon
Length of Visible Light
Length of Day
Tomorrow will be .
, % of the Moon is Illuminated

Today's Extremes

Country Highs Country Lows

Community

WunderPhotos

Upload Photos

1,935,265 photos uploaded!

WunderBlog® & News

Nearby

Air Quality

  Air Quality AQ Index Pollutant
Not available.

Snow Depth

Station Depth Elevation

Earthquake Activity

City Distance Mag. Time & Date
Minimum magnitude displayed is 2.5.

Coastal Water Temperatures

Place Temperature

Stations

Nearby Weather Stations

Station Location Temp. Windchill Dew Point Humidity Wind Precip. Elev Updated Type